createdAt,value
2023-01-11T00:01:07.359Z,2.78
2023-01-11T00:03:36.847Z,1.85
2023-01-11T00:08:36.396Z,2.67
2023-01-11T00:11:05.135Z,2.40
2023-01-11T00:13:34.012Z,1.08
2023-01-11T00:16:07.525Z,1.63
2023-01-11T00:18:38.275Z,1.13
2023-01-11T00:21:07.257Z,1.38
2023-01-11T00:23:38.020Z,0.90
2023-01-11T00:26:07.844Z,3.40
2023-01-11T00:28:35.840Z,4.50
2023-01-11T00:31:04.387Z,1.00
2023-01-11T00:33:32.562Z,2.00
2023-01-11T00:36:01.834Z,4.18
2023-01-11T00:38:45.126Z,1.92
2023-01-11T00:41:32.526Z,2.40
2023-01-11T00:44:18.803Z,0.70
2023-01-11T00:47:04.002Z,2.03
2023-01-11T00:49:34.654Z,1.00
2023-01-11T00:52:05.654Z,1.60
2023-01-11T00:54:34.438Z,0.80
2023-01-11T00:57:02.805Z,0.60
2023-01-11T00:59:30.829Z,1.40
2023-01-11T01:01:59.419Z,1.58
2023-01-11T01:04:27.635Z,1.77
2023-01-11T01:06:55.709Z,1.67
2023-01-11T01:09:26.550Z,0.70
2023-01-11T01:11:54.857Z,0.90
2023-01-11T01:14:29.933Z,1.23
2023-01-11T01:17:00.266Z,0.50
2023-01-11T01:19:29.861Z,1.33
2023-01-11T01:21:59.367Z,0.47
2023-01-11T01:26:58.498Z,0.50
2023-01-11T01:29:26.664Z,0.85
2023-01-11T01:31:55.525Z,1.10
2023-01-11T01:34:23.423Z,1.02
2023-01-11T01:36:51.824Z,0.73
2023-01-11T01:39:20.220Z,0.65
2023-01-11T01:41:49.589Z,2.65
2023-01-11T01:44:54.523Z,1.10
2023-01-11T01:47:27.091Z,0.55
2023-01-11T01:49:56.432Z,1.27
2023-01-11T01:52:29.039Z,0.40
2023-01-11T01:55:05.285Z,1.08
2023-01-11T01:57:37.865Z,1.27
2023-01-11T02:00:09.403Z,0.35
2023-01-11T02:02:41.117Z,1.85
2023-01-11T02:05:10.638Z,0.82
2023-01-11T02:07:43.753Z,2.55
2023-01-11T02:10:15.234Z,0.82
2023-01-11T02:12:49.485Z,0.20
2023-01-11T02:15:20.114Z,0.57
2023-01-11T02:17:48.964Z,1.75
2023-01-11T02:20:33.041Z,0.32
2023-01-11T02:23:28.618Z,0.80
2023-01-11T02:26:58.626Z,1.40
2023-01-11T02:29:38.572Z,0.40
2023-01-11T02:32:19.110Z,2.63
2023-01-11T02:34:52.393Z,0.50
2023-01-11T02:37:29.086Z,3.30
2023-01-11T02:40:07.561Z,1.20
2023-01-11T02:42:57.178Z,0.45
2023-01-11T02:45:41.003Z,1.23
2023-01-11T02:48:20.216Z,2.00
2023-01-11T02:50:55.748Z,0.30
2023-01-11T02:53:29.961Z,0.30
2023-01-11T02:56:05.662Z,0.40
2023-01-11T02:58:37.431Z,1.67
2023-01-11T03:01:08.803Z,0.40
2023-01-11T03:03:36.924Z,0.70
2023-01-11T03:06:07.379Z,0.60
2023-01-11T03:09:01.792Z,1.00
2023-01-11T03:11:59.977Z,0.52
2023-01-11T03:14:35.745Z,1.10
2023-01-11T03:17:16.236Z,0.45
2023-01-11T03:19:51.934Z,0.20
2023-01-11T03:22:27.035Z,1.30
2023-01-11T03:25:02.241Z,0.43
2023-01-11T03:27:38.247Z,1.85
2023-01-11T03:30:13.249Z,0.52
2023-01-11T03:32:51.663Z,0.63
2023-01-11T03:35:27.589Z,0.60
2023-01-11T03:38:00.084Z,0.32
2023-01-11T03:40:33.334Z,0.90
2023-01-11T03:43:20.989Z,0.60
2023-01-11T03:45:54.244Z,0.65
2023-01-11T03:48:28.828Z,0.40
2023-01-11T03:50:59.051Z,0.20
2023-01-11T03:53:29.271Z,0.35
2023-01-11T03:55:58.736Z,0.45
2023-01-11T04:00:57.509Z,0.45
2023-01-11T04:03:28.256Z,0.65
2023-01-11T04:06:01.209Z,0.70
2023-01-11T04:08:31.105Z,0.40
2023-01-11T04:10:59.618Z,0.30
2023-01-11T04:13:27.958Z,1.00
2023-01-11T04:15:56.029Z,0.28
2023-01-11T04:18:23.964Z,0.85
2023-01-11T04:20:54.135Z,0.95
2023-01-11T04:23:22.126Z,4.65
2023-01-11T04:25:51.046Z,1.75
2023-01-11T04:28:18.903Z,0.20
2023-01-11T04:30:47.447Z,0.75
2023-01-11T04:33:15.399Z,0.20
2023-01-11T04:35:43.975Z,2.65
2023-01-11T04:38:13.759Z,0.20
2023-01-11T04:40:42.151Z,0.82
2023-01-11T04:43:09.106Z,1.42
2023-01-11T04:45:37.172Z,0.88
2023-01-11T04:48:06.661Z,0.20
2023-01-11T04:50:34.656Z,1.23
2023-01-11T04:53:03.030Z,0.52
2023-01-11T04:55:33.287Z,0.25
2023-01-11T04:58:01.243Z,0.80
2023-01-11T05:00:29.625Z,0.70
2023-01-11T05:03:00.127Z,0.20
2023-01-11T05:05:28.525Z,0.30
2023-01-11T05:07:56.571Z,0.10
2023-01-11T05:10:24.509Z,1.65
2023-01-11T05:12:54.261Z,0.55
2023-01-11T05:15:23.091Z,0.17
2023-01-11T05:17:51.060Z,0.20
2023-01-11T05:20:19.888Z,0.35
2023-01-11T05:22:47.799Z,1.40
2023-01-11T05:25:16.664Z,1.77
2023-01-11T05:27:44.592Z,0.20
2023-01-11T05:30:15.561Z,0.10
2023-01-11T05:32:44.478Z,0.60
2023-01-11T05:35:12.468Z,0.50
2023-01-11T05:37:41.006Z,0.57
2023-01-11T05:40:10.671Z,1.20
2023-01-11T05:42:38.643Z,0.55
2023-01-11T05:45:25.410Z,0.13
2023-01-11T05:47:55.976Z,0.25
2023-01-11T05:50:25.081Z,0.10
2023-01-11T05:52:53.499Z,0.60
2023-01-11T05:55:21.437Z,0.80
2023-01-11T05:57:51.025Z,0.73
2023-01-11T06:00:20.636Z,0.35
2023-01-11T06:02:48.710Z,0.30
2023-01-11T06:05:18.561Z,1.27
2023-01-11T06:07:47.388Z,0.30
2023-01-11T06:10:15.376Z,0.38
2023-01-11T06:12:43.312Z,0.25
2023-01-11T06:15:12.509Z,1.80
2023-01-11T06:17:41.119Z,0.40
2023-01-11T06:20:11.669Z,0.53
2023-01-11T06:22:40.987Z,0.50
2023-01-11T06:25:09.540Z,1.60
2023-01-11T06:27:38.320Z,0.80
2023-01-11T06:30:07.467Z,0.55
2023-01-11T06:32:35.835Z,1.45
2023-01-11T06:35:04.004Z,2.22
2023-01-11T06:37:32.384Z,0.90
2023-01-11T06:40:02.006Z,1.38
2023-01-11T06:42:29.922Z,0.80
2023-01-11T06:44:58.283Z,1.27
2023-01-11T06:47:26.642Z,0.68
2023-01-11T06:49:54.592Z,2.30
2023-01-11T06:52:22.500Z,1.05
2023-01-11T06:54:51.470Z,1.92
2023-01-11T06:57:20.693Z,0.75
2023-01-11T06:59:49.039Z,0.95
2023-01-11T07:02:17.928Z,0.85
2023-01-11T07:04:45.972Z,1.25
2023-01-11T07:07:14.373Z,0.98
2023-01-11T07:09:44.065Z,1.83
2023-01-11T07:12:11.987Z,1.17
2023-01-11T07:14:41.855Z,1.40
2023-01-11T07:19:38.401Z,1.77
2023-01-11T07:22:07.321Z,1.08
2023-01-11T07:24:35.262Z,0.77
2023-01-11T07:27:03.842Z,0.73
2023-01-11T07:29:32.223Z,1.58
2023-01-11T07:32:01.617Z,1.55
2023-01-11T07:34:30.494Z,1.13
2023-01-11T07:36:58.408Z,0.47
2023-01-11T07:39:38.482Z,2.75
2023-01-11T07:42:29.597Z,1.40
2023-01-11T07:44:57.635Z,2.20
2023-01-11T07:47:27.555Z,1.10
2023-01-11T07:49:56.316Z,1.10
2023-01-11T07:52:24.217Z,1.42
2023-01-11T07:54:52.550Z,1.08
2023-01-11T07:57:20.468Z,2.30
2023-01-11T07:59:48.335Z,1.10
2023-01-11T08:02:16.745Z,1.77
2023-01-11T08:04:46.228Z,1.17
2023-01-11T08:07:14.128Z,1.55
2023-01-11T08:09:43.009Z,3.33
2023-01-11T08:12:28.126Z,1.00
2023-01-11T08:14:57.017Z,1.50
2023-01-11T08:17:24.952Z,2.67
2023-01-11T08:19:55.846Z,1.10
2023-01-11T08:22:24.276Z,1.40
2023-01-11T08:24:52.284Z,1.38
2023-01-11T08:27:20.242Z,1.30
2023-01-11T08:29:49.271Z,1.95
2023-01-11T08:32:17.252Z,2.03
2023-01-11T08:34:45.656Z,1.77
2023-01-11T08:37:15.343Z,1.85
2023-01-11T08:39:43.227Z,1.17
2023-01-11T08:42:11.104Z,1.00
2023-01-11T08:44:39.911Z,2.25
2023-01-11T08:47:07.882Z,1.45
2023-01-11T08:49:36.727Z,2.22
2023-01-11T08:52:05.391Z,2.28
2023-01-11T08:54:35.321Z,2.90
2023-01-11T08:59:32.162Z,2.60
2023-01-11T09:02:00.170Z,3.15
2023-01-11T09:04:28.742Z,3.20
2023-01-11T09:06:57.207Z,3.72
2023-01-11T09:09:25.170Z,3.10
2023-01-11T09:11:55.457Z,3.25
2023-01-11T09:16:52.270Z,3.92
2023-01-11T09:19:21.545Z,5.50
2023-01-11T09:21:51.175Z,4.13
2023-01-11T09:24:20.366Z,6.68
2023-01-11T09:26:48.416Z,5.95
2023-01-11T09:29:18.918Z,7.10
2023-01-11T09:31:48.343Z,6.88
2023-01-11T09:34:16.290Z,11.50
2023-01-11T09:39:20.400Z,8.20
2023-01-11T09:42:07.970Z,7.40
2023-01-11T09:44:43.022Z,10.55
2023-01-11T09:47:17.231Z,8.40
2023-01-11T09:49:52.296Z,8.50
2023-01-11T09:52:29.311Z,9.90
2023-01-11T09:55:01.808Z,9.52
2023-01-11T09:57:42.916Z,9.55
2023-01-11T10:00:21.295Z,7.72
2023-01-11T10:03:06.394Z,7.88
2023-01-11T10:05:50.516Z,12.82
2023-01-11T10:18:28.170Z,9.30
2023-01-11T10:18:40.174Z,8.85
2023-01-11T10:20:38.390Z,8.00
2023-01-11T10:23:13.214Z,7.95
2023-01-11T10:25:50.325Z,9.27
2023-01-11T10:28:29.928Z,6.63
2023-01-11T10:31:28.756Z,8.88
2023-01-11T10:34:31.052Z,11.73
2023-01-11T10:37:18.753Z,10.68
2023-01-11T10:40:15.916Z,12.20
2023-01-11T10:42:49.328Z,13.40
2023-01-11T10:45:23.018Z,10.85
2023-01-11T10:47:58.222Z,13.98
2023-01-11T10:50:32.376Z,11.10
2023-01-11T10:53:07.563Z,13.90
2023-01-11T10:55:45.074Z,11.10
2023-01-11T10:58:25.572Z,11.35
2023-01-11T11:01:08.919Z,15.10
2023-01-11T11:03:49.974Z,10.63
2023-01-11T11:06:30.847Z,10.77
2023-01-11T11:09:07.099Z,15.20
2023-01-11T11:11:42.260Z,10.55
2023-01-11T11:14:17.402Z,14.75
2023-01-11T11:16:55.936Z,9.63
2023-01-11T11:19:30.364Z,13.50
2023-01-11T11:22:01.114Z,18.38
2023-01-11T11:24:36.115Z,17.17
2023-01-11T11:27:11.242Z,15.65
2023-01-11T11:29:43.438Z,12.57
2023-01-11T11:32:21.462Z,12.27
2023-01-11T11:34:50.366Z,13.23
2023-01-11T11:37:27.682Z,21.33
2023-01-11T11:39:56.330Z,12.60
2023-01-11T11:42:25.211Z,13.02
2023-01-11T11:45:22.423Z,16.20
2023-01-11T11:48:05.702Z,12.27
2023-01-11T11:50:44.700Z,8.48
2023-01-11T11:53:25.399Z,15.63
2023-01-11T11:58:27.393Z,13.35
2023-01-11T12:00:56.026Z,24.15
2023-01-11T12:03:30.562Z,16.10
2023-01-11T12:06:01.864Z,13.23
2023-01-11T12:08:35.451Z,15.70
2023-01-11T12:11:07.254Z,16.95
2023-01-11T12:13:37.935Z,18.48
2023-01-11T12:16:09.288Z,8.95
2023-01-11T12:18:43.000Z,9.07
2023-01-11T12:21:21.489Z,7.00
2023-01-11T12:24:10.225Z,9.18
2023-01-11T12:26:47.044Z,8.13
2023-01-11T12:29:30.249Z,7.75
2023-01-11T12:32:30.552Z,12.13
2023-01-11T12:35:09.781Z,9.55
2023-01-11T12:37:56.526Z,10.25
2023-01-11T12:40:36.448Z,11.85
2023-01-11T12:43:25.452Z,10.75
2023-01-11T12:46:05.569Z,10.50
2023-01-11T12:48:54.738Z,7.65
2023-01-11T12:51:38.795Z,10.77
2023-01-11T12:54:25.535Z,8.63
2023-01-11T12:57:13.287Z,11.18
2023-01-11T13:00:12.398Z,11.35
2023-01-11T13:05:57.923Z,9.95
2023-01-11T13:08:35.696Z,10.57
2023-01-11T13:11:13.941Z,6.78
2023-01-11T13:13:56.725Z,10.82
2023-01-11T13:16:31.892Z,10.95
2023-01-11T13:19:06.337Z,9.60
2023-01-11T13:21:37.985Z,12.57
2023-01-11T13:24:13.987Z,8.10
2023-01-11T13:26:45.180Z,11.38
2023-01-11T13:29:20.515Z,8.27
2023-01-11T13:31:50.704Z,7.78
2023-01-11T13:34:25.329Z,9.75
2023-01-11T13:37:00.124Z,8.60
2023-01-11T13:39:36.738Z,12.10
2023-01-11T13:42:13.409Z,9.05
2023-01-11T13:45:11.601Z,7.60
2023-01-11T13:47:45.734Z,10.25
2023-01-11T13:50:20.875Z,8.25
2023-01-11T13:53:03.995Z,9.68
2023-01-11T13:55:41.728Z,5.43
2023-01-11T13:58:17.203Z,5.30
2023-01-11T14:00:53.293Z,9.18
2023-01-11T14:03:30.892Z,6.45
2023-01-11T14:06:20.068Z,4.20
2023-01-11T14:09:01.553Z,5.72
2023-01-11T14:11:41.054Z,9.57
2023-01-11T14:14:27.167Z,5.82
2023-01-11T14:17:12.511Z,6.63
2023-01-11T14:19:50.583Z,8.45
2023-01-11T14:22:27.081Z,6.78
2023-01-11T14:25:00.201Z,7.97
2023-01-11T14:27:47.329Z,7.85
2023-01-11T14:30:41.619Z,7.93
2023-01-11T14:33:48.044Z,8.73
2023-01-11T14:36:44.184Z,7.28
2023-01-11T14:39:37.521Z,7.95
2023-01-11T14:42:34.988Z,4.63
2023-01-11T14:45:31.306Z,12.88
2023-01-11T14:48:18.931Z,5.90
2023-01-11T14:51:11.244Z,7.28
2023-01-11T14:53:44.910Z,8.93
2023-01-11T14:56:53.181Z,9.40
2023-01-11T14:59:35.604Z,9.63
2023-01-11T15:02:28.882Z,8.80
2023-01-11T15:05:35.301Z,7.88
2023-01-11T15:08:22.046Z,5.95
2023-01-11T15:10:58.859Z,10.70
2023-01-11T15:13:29.726Z,5.00
2023-01-11T15:16:27.100Z,8.75
2023-01-11T15:18:56.194Z,6.72
2023-01-11T15:21:26.788Z,10.85
2023-01-11T15:23:58.483Z,7.07
2023-01-11T15:26:28.494Z,8.00
2023-01-11T15:28:58.473Z,9.60
2023-01-11T15:31:50.306Z,8.05
2023-01-11T15:34:27.288Z,13.73
2023-01-11T15:37:17.724Z,6.72
2023-01-11T15:39:52.704Z,8.75
2023-01-11T15:42:58.342Z,7.95
2023-01-11T15:46:11.007Z,12.70
2023-01-11T15:48:56.110Z,8.27
2023-01-11T15:51:50.460Z,6.90
2023-01-11T15:54:54.609Z,8.45
2023-01-11T15:57:48.766Z,7.60
2023-01-11T16:00:36.764Z,10.13
2023-01-11T16:03:38.318Z,8.32
2023-01-11T16:06:17.701Z,13.57
2023-01-11T16:08:54.746Z,5.10
2023-01-11T16:11:30.238Z,7.43
2023-01-11T16:14:30.595Z,13.40
2023-01-11T16:17:00.236Z,7.05
2023-01-11T16:19:33.110Z,8.02
2023-01-11T16:22:06.508Z,5.15
2023-01-11T16:24:39.389Z,8.35
2023-01-11T16:27:09.725Z,9.00
2023-01-11T16:32:19.734Z,9.55
2023-01-11T16:34:51.280Z,9.32
2023-01-11T16:37:24.688Z,12.23
2023-01-11T16:39:56.048Z,4.03
2023-01-11T16:42:28.391Z,7.88
2023-01-11T16:45:02.228Z,8.50
2023-01-11T16:47:31.272Z,8.23
2023-01-11T16:50:20.945Z,11.07
2023-01-11T16:52:53.415Z,7.28
2023-01-11T16:55:25.383Z,15.23
2023-01-11T16:57:57.515Z,10.85
2023-01-11T17:00:33.057Z,11.27
2023-01-11T17:03:05.639Z,11.20
2023-01-11T17:05:34.630Z,7.82
2023-01-11T17:08:24.934Z,11.45
2023-01-11T17:10:55.279Z,8.85
2023-01-11T17:13:54.199Z,14.00
2023-01-11T17:16:28.176Z,8.18
2023-01-11T17:18:56.544Z,13.50
2023-01-11T17:21:26.741Z,10.90
2023-01-11T17:23:59.807Z,12.43
2023-01-11T17:26:32.213Z,9.45
2023-01-11T17:29:01.534Z,7.95
2023-01-11T17:31:34.034Z,11.35
2023-01-11T17:34:05.352Z,6.93
2023-01-11T17:36:34.901Z,11.00
2023-01-11T17:39:04.381Z,11.90
2023-01-11T17:41:51.293Z,11.35
2023-01-11T17:44:39.590Z,13.15
2023-01-11T17:47:13.784Z,13.45
2023-01-11T17:49:41.824Z,11.38
2023-01-11T17:52:12.084Z,9.40
2023-01-11T17:54:40.979Z,9.73
2023-01-11T17:57:10.701Z,11.02
2023-01-11T17:59:39.410Z,12.93
2023-01-11T18:02:13.964Z,8.48
2023-01-11T18:04:42.394Z,7.93
2023-01-11T18:07:17.691Z,10.77
2023-01-11T18:09:47.961Z,8.90
2023-01-11T18:12:19.801Z,9.52
2023-01-11T18:14:51.829Z,13.35
2023-01-11T18:17:36.544Z,6.78
2023-01-11T18:20:27.803Z,11.90
2023-01-11T18:23:04.635Z,9.52
2023-01-11T18:25:35.112Z,12.13
2023-01-11T18:28:28.433Z,8.88
2023-01-11T18:31:00.111Z,11.20
2023-01-11T18:33:34.505Z,8.32
2023-01-11T18:36:03.735Z,11.60
2023-01-11T18:38:34.187Z,12.98
2023-01-11T18:41:25.324Z,7.45
2023-01-11T18:43:53.752Z,10.80
2023-01-11T18:46:21.793Z,11.13
2023-01-11T18:48:51.982Z,9.57
2023-01-11T18:51:25.213Z,10.73
2023-01-11T18:53:54.038Z,6.07
2023-01-11T18:56:21.966Z,15.90
2023-01-11T18:58:50.813Z,10.32
2023-01-11T19:01:19.359Z,12.15
2023-01-11T19:03:48.335Z,8.10
2023-01-11T19:06:19.906Z,12.40
2023-01-11T19:08:47.924Z,9.40
2023-01-11T19:11:16.863Z,8.98
2023-01-11T19:13:46.943Z,6.30
2023-01-11T19:16:15.929Z,12.65
2023-01-11T19:18:45.234Z,11.82
2023-01-11T19:21:14.640Z,7.80
2023-01-11T19:23:44.046Z,11.65
2023-01-11T19:26:12.619Z,8.23
2023-01-11T19:28:40.611Z,11.27
2023-01-11T19:31:11.283Z,13.07
2023-01-11T19:33:42.176Z,8.98
2023-01-11T19:36:11.419Z,13.40
2023-01-11T19:38:39.770Z,5.07
2023-01-11T19:41:12.604Z,8.38
2023-01-11T19:43:44.871Z,5.95
2023-01-11T19:46:19.615Z,8.32
2023-01-11T19:48:54.460Z,9.73
2023-01-11T19:51:22.939Z,9.60
2023-01-11T19:53:51.011Z,11.30
2023-01-11T19:56:20.366Z,11.20
2023-01-11T19:58:48.774Z,6.43
2023-01-11T20:01:16.869Z,10.77
2023-01-11T20:03:45.889Z,6.15
2023-01-11T20:06:13.961Z,10.30
2023-01-11T20:08:42.102Z,9.05
2023-01-11T20:11:13.468Z,7.63
2023-01-11T20:13:45.309Z,6.85
2023-01-11T20:16:15.679Z,8.75
2023-01-11T20:21:13.577Z,10.90
2023-01-11T20:23:42.315Z,11.23
2023-01-11T20:26:14.935Z,5.60
2023-01-11T20:28:46.703Z,7.05
2023-01-11T20:31:14.773Z,7.63
2023-01-11T20:33:43.184Z,5.93
2023-01-11T20:36:13.908Z,9.65
2023-01-11T20:38:42.218Z,10.25
2023-01-11T20:41:11.417Z,9.40
2023-01-11T20:43:40.546Z,4.90
2023-01-11T20:46:10.002Z,4.25
2023-01-11T20:51:07.040Z,4.63
2023-01-11T20:53:35.434Z,7.55
2023-01-11T20:56:06.375Z,6.88
2023-01-11T20:58:34.550Z,3.38
2023-01-11T21:01:04.866Z,7.05
2023-01-11T21:03:34.808Z,7.75
2023-01-11T21:06:03.298Z,9.55
2023-01-11T21:08:31.766Z,7.93
2023-01-11T21:11:05.805Z,5.93
2023-01-11T21:13:33.958Z,9.18
2023-01-11T21:16:08.635Z,8.55
2023-01-11T21:18:38.064Z,8.52
2023-01-11T21:21:07.136Z,8.75
2023-01-11T21:23:35.119Z,8.38
2023-01-11T21:26:04.930Z,7.05
2023-01-11T21:28:32.867Z,8.35
2023-01-11T21:31:05.794Z,7.82
2023-01-11T21:33:34.728Z,4.72
2023-01-11T21:36:05.599Z,6.75
2023-01-11T21:38:35.198Z,6.50
2023-01-11T21:41:07.126Z,5.97
2023-01-11T21:43:35.965Z,6.28
2023-01-11T21:46:05.868Z,11.25
2023-01-11T21:48:35.188Z,6.03
2023-01-11T21:51:07.947Z,5.38
2023-01-11T21:53:36.966Z,7.47
2023-01-11T21:56:07.149Z,8.93
2023-01-11T21:58:36.841Z,9.05
2023-01-11T22:01:11.683Z,5.75
2023-01-11T22:03:42.605Z,6.30
2023-01-11T22:06:12.153Z,6.53
2023-01-11T22:11:11.236Z,6.95
2023-01-11T22:13:39.227Z,8.20
2023-01-11T22:16:09.932Z,11.23
2023-01-11T22:18:37.924Z,10.55
2023-01-11T22:21:06.945Z,9.05
2023-01-11T22:23:38.968Z,9.80
2023-01-11T22:26:08.871Z,11.63
2023-01-11T22:28:57.846Z,13.10
2023-01-11T22:31:27.461Z,7.47
2023-01-11T22:33:56.158Z,7.55
2023-01-11T22:36:25.924Z,7.60
2023-01-11T22:38:55.888Z,6.35
2023-01-11T22:41:25.994Z,4.78
2023-01-11T22:43:55.161Z,5.72
2023-01-11T22:46:24.932Z,8.90
2023-01-11T22:48:54.606Z,8.13
2023-01-11T22:51:25.036Z,5.90
2023-01-11T22:53:56.865Z,5.30
2023-01-11T22:56:29.191Z,7.47
2023-01-11T22:58:58.732Z,9.50
2023-01-11T23:01:28.478Z,5.03
2023-01-11T23:03:58.070Z,6.00
2023-01-11T23:06:27.643Z,7.18
2023-01-11T23:08:58.434Z,7.03
2023-01-11T23:11:45.798Z,6.10
2023-01-11T23:14:17.130Z,9.80
2023-01-11T23:16:45.829Z,9.77
2023-01-11T23:19:15.945Z,9.88
2023-01-11T23:21:46.029Z,7.75
2023-01-11T23:24:17.494Z,6.90
2023-01-11T23:26:46.181Z,8.15
2023-01-11T23:29:14.679Z,9.68
2023-01-11T23:31:44.168Z,2.65
2023-01-11T23:34:14.068Z,6.22
2023-01-11T23:39:14.196Z,5.13
2023-01-11T23:42:01.704Z,7.82
2023-01-11T23:44:30.624Z,8.80
2023-01-11T23:47:16.206Z,8.30
2023-01-11T23:49:45.560Z,9.68
2023-01-11T23:52:13.573Z,7.47
2023-01-11T23:54:43.386Z,6.15
2023-01-11T23:57:14.121Z,6.53
2023-01-11T23:59:43.403Z,5.35
